createdAt,value
2018-12-04T00:01:07.806Z,11.60
2018-12-04T00:03:38.520Z,11.60
2018-12-04T00:06:09.210Z,11.60
2018-12-04T00:08:39.958Z,11.60
2018-12-04T00:11:10.678Z,11.60
2018-12-04T00:13:41.371Z,11.60
2018-12-04T00:16:12.117Z,11.60
2018-12-04T00:18:42.819Z,11.60
2018-12-04T00:21:13.530Z,11.50
2018-12-04T00:23:44.212Z,11.50
2018-12-04T00:26:14.926Z,11.40
2018-12-04T00:28:45.645Z,11.30
2018-12-04T00:31:16.366Z,11.30
2018-12-04T00:33:47.129Z,11.30
2018-12-04T00:36:17.968Z,11.20
2018-12-04T00:38:48.649Z,11.20
2018-12-04T00:41:19.358Z,11.10
2018-12-04T00:43:50.077Z,11.10
2018-12-04T00:46:20.793Z,11.10
2018-12-04T00:48:51.485Z,11.00
2018-12-04T00:51:22.210Z,11.00
2018-12-04T00:53:52.921Z,10.90
2018-12-04T00:56:23.651Z,10.80
2018-12-04T00:58:54.584Z,10.80
2018-12-04T01:01:25.314Z,10.70
2018-12-04T01:03:56.274Z,10.60
2018-12-04T01:06:26.951Z,10.60
2018-12-04T01:08:57.638Z,10.50
2018-12-04T01:11:28.341Z,10.40
2018-12-04T01:13:59.045Z,10.40
2018-12-04T01:16:29.984Z,10.30
2018-12-04T01:19:00.948Z,10.30
2018-12-04T01:21:31.825Z,10.20
2018-12-04T01:24:02.522Z,10.10
2018-12-04T01:26:33.238Z,10.00
2018-12-04T01:29:04.221Z,10.00
2018-12-04T01:31:35.140Z,10.00
2018-12-04T01:34:05.859Z,9.90
2018-12-04T01:36:36.541Z,9.80
2018-12-04T01:39:07.409Z,9.80
2018-12-04T01:41:38.143Z,9.70
2018-12-04T01:44:08.833Z,9.70
2018-12-04T01:46:39.496Z,9.60
2018-12-04T01:49:10.189Z,9.60
2018-12-04T01:51:41.195Z,9.60
2018-12-04T01:54:11.893Z,9.60
2018-12-04T01:56:43.085Z,9.50
2018-12-04T01:59:13.915Z,9.50
2018-12-04T02:01:44.597Z,9.40
2018-12-04T02:04:15.301Z,9.40
2018-12-04T02:06:45.981Z,9.30
2018-12-04T02:09:16.677Z,9.40
2018-12-04T02:11:47.359Z,9.30
2018-12-04T02:14:18.049Z,9.40
2018-12-04T02:16:48.718Z,9.40
2018-12-04T02:19:19.500Z,9.30
2018-12-04T02:21:50.169Z,9.30
2018-12-04T02:24:20.853Z,9.30
2018-12-04T02:26:51.778Z,9.20
2018-12-04T02:29:22.481Z,9.20
2018-12-04T02:31:53.204Z,9.20
2018-12-04T02:34:24.082Z,9.20
2018-12-04T02:36:54.786Z,9.10
2018-12-04T02:39:25.467Z,9.10
2018-12-04T02:41:56.531Z,9.10
2018-12-04T02:44:27.464Z,9.10
2018-12-04T02:46:58.394Z,9.10
2018-12-04T02:49:29.064Z,9.00
2018-12-04T02:51:59.753Z,9.00
2018-12-04T02:54:30.502Z,9.00
2018-12-04T02:57:01.225Z,9.00
2018-12-04T02:59:31.917Z,8.90
2018-12-04T03:02:02.650Z,8.90
2018-12-04T03:04:33.333Z,8.90
2018-12-04T03:07:04.073Z,8.90
2018-12-04T03:09:34.758Z,8.90
2018-12-04T03:12:05.502Z,8.90
2018-12-04T03:14:36.194Z,8.90
2018-12-04T03:17:07.094Z,8.80
2018-12-04T03:19:38.024Z,8.80
2018-12-04T03:22:08.934Z,8.80
2018-12-04T03:24:39.639Z,8.80
2018-12-04T03:27:10.361Z,8.80
2018-12-04T03:29:41.062Z,8.80
2018-12-04T03:32:12.094Z,8.70
2018-12-04T03:34:43.040Z,8.70
2018-12-04T03:37:13.779Z,8.80
2018-12-04T03:39:44.474Z,8.70
2018-12-04T03:42:15.389Z,8.70
2018-12-04T03:44:46.321Z,8.70
2018-12-04T03:47:16.997Z,8.60
2018-12-04T03:49:47.705Z,8.70
2018-12-04T03:52:18.425Z,8.60
2018-12-04T03:54:49.143Z,8.60
2018-12-04T03:57:19.816Z,8.70
2018-12-04T03:59:50.745Z,8.60
2018-12-04T04:02:21.420Z,8.60
2018-12-04T04:04:52.127Z,8.60
2018-12-04T04:07:22.808Z,8.60
2018-12-04T04:09:53.734Z,8.60
2018-12-04T04:12:24.680Z,8.60
2018-12-04T04:14:55.447Z,8.50
2018-12-04T04:17:26.162Z,8.50
2018-12-04T04:19:56.831Z,8.50
2018-12-04T04:22:27.770Z,8.50
2018-12-04T04:24:58.712Z,8.50
2018-12-04T04:27:29.464Z,8.50
2018-12-04T04:30:00.410Z,8.50
2018-12-04T04:32:31.390Z,8.50
2018-12-04T04:35:02.099Z,8.50
2018-12-04T04:37:32.785Z,8.50
2018-12-04T04:40:04.370Z,8.50
2018-12-04T04:42:35.088Z,8.50
2018-12-04T04:45:06.007Z,8.50
2018-12-04T04:47:36.977Z,8.50
2018-12-04T04:50:08.003Z,8.50
2018-12-04T04:52:38.709Z,8.50
2018-12-04T04:55:09.577Z,8.40
2018-12-04T04:57:40.521Z,8.40
2018-12-04T05:00:11.202Z,8.40
2018-12-04T05:02:41.917Z,8.40
2018-12-04T05:05:12.830Z,8.40
2018-12-04T05:07:43.546Z,8.40
2018-12-04T05:10:14.237Z,8.40
2018-12-04T05:12:44.954Z,8.40
2018-12-04T05:15:15.641Z,8.40
2018-12-04T05:17:46.599Z,8.40
2018-12-04T05:20:17.519Z,8.30
2018-12-04T05:22:48.217Z,8.40
2018-12-04T05:25:18.889Z,8.30
2018-12-04T05:27:49.613Z,8.30
2018-12-04T05:30:20.534Z,8.30
2018-12-04T05:32:51.480Z,8.40
2018-12-04T05:35:22.171Z,8.40
2018-12-04T05:37:52.886Z,8.40
2018-12-04T05:40:23.581Z,8.40
2018-12-04T05:42:54.293Z,8.40
2018-12-04T05:45:25.011Z,8.40
2018-12-04T05:47:55.703Z,8.40
2018-12-04T05:50:26.391Z,8.40
2018-12-04T05:53:08.434Z,8.30
2018-12-04T05:55:39.155Z,8.30
2018-12-04T05:58:09.834Z,8.30
2018-12-04T06:00:40.598Z,8.30
2018-12-04T06:03:11.283Z,8.30
2018-12-04T06:05:42.273Z,8.20
2018-12-04T06:08:12.945Z,8.20
2018-12-04T06:10:43.654Z,8.20
2018-12-04T06:13:14.570Z,8.20
2018-12-04T06:15:45.350Z,8.20
2018-12-04T06:18:16.086Z,8.20
2018-12-04T06:20:46.795Z,8.20
2018-12-04T06:23:17.510Z,8.20
2018-12-04T06:25:48.341Z,8.20
2018-12-04T06:28:19.080Z,8.20
2018-12-04T06:30:49.793Z,8.20
2018-12-04T06:33:21.415Z,8.20
2018-12-04T06:35:52.170Z,8.10
2018-12-04T06:38:23.831Z,8.10
2018-12-04T06:40:54.538Z,8.10
2018-12-04T06:43:25.246Z,8.10
2018-12-04T06:45:55.926Z,8.10
2018-12-04T06:48:26.678Z,8.10
2018-12-04T06:50:57.367Z,8.10
2018-12-04T06:53:28.085Z,8.10
2018-12-04T06:55:58.779Z,8.10
2018-12-04T06:58:29.486Z,8.00
2018-12-04T07:01:00.144Z,8.00
2018-12-04T07:03:30.863Z,8.00
2018-12-04T07:06:01.543Z,8.00
2018-12-04T07:08:32.488Z,8.00
2018-12-04T07:11:03.178Z,8.00
2018-12-04T07:13:33.903Z,8.00
2018-12-04T07:16:04.654Z,8.00
2018-12-04T07:18:35.593Z,8.00
2018-12-04T07:21:06.308Z,8.00
2018-12-04T07:23:37.264Z,8.00
2018-12-04T07:26:08.010Z,8.00
2018-12-04T07:28:38.725Z,8.00
2018-12-04T07:31:09.415Z,8.00
2018-12-04T07:33:40.113Z,8.00
2018-12-04T07:36:10.829Z,7.90
2018-12-04T07:38:41.565Z,7.90
2018-12-04T07:41:12.281Z,8.00
2018-12-04T07:43:42.999Z,7.90
2018-12-04T07:46:13.729Z,7.90
2018-12-04T07:48:44.466Z,7.90
2018-12-04T07:51:15.189Z,7.90
2018-12-04T07:53:45.886Z,7.90
2018-12-04T07:56:16.649Z,7.80
2018-12-04T07:58:47.421Z,7.90
2018-12-04T08:01:18.136Z,7.80
2018-12-04T08:03:48.830Z,7.80
2018-12-04T08:06:19.778Z,7.80
2018-12-04T08:08:50.492Z,7.80
2018-12-04T08:11:21.226Z,7.80
2018-12-04T08:13:52.270Z,7.80
2018-12-04T08:16:23.153Z,7.80
2018-12-04T08:18:53.858Z,7.80
2018-12-04T08:21:24.620Z,7.80
2018-12-04T08:23:55.323Z,7.80
2018-12-04T08:26:26.045Z,7.80
2018-12-04T08:28:56.739Z,7.90
2018-12-04T08:31:28.383Z,7.90
2018-12-04T08:33:59.078Z,7.90
2018-12-04T08:36:29.861Z,7.90
2018-12-04T08:39:00.502Z,8.00
2018-12-04T08:41:31.230Z,8.00
2018-12-04T08:44:01.994Z,8.10
2018-12-04T08:46:32.731Z,8.10
2018-12-04T08:49:03.417Z,8.10
2018-12-04T08:51:34.141Z,8.20
2018-12-04T08:54:05.120Z,8.20
2018-12-04T08:56:36.062Z,8.20
2018-12-04T08:59:06.767Z,8.20
2018-12-04T09:01:37.730Z,8.20
2018-12-04T09:04:08.405Z,8.20
2018-12-04T09:06:39.125Z,8.20
2018-12-04T09:09:09.969Z,8.20
2018-12-04T09:11:40.674Z,8.20
2018-12-04T09:14:11.378Z,8.20
2018-12-04T09:16:42.071Z,8.20
2018-12-04T09:19:12.787Z,8.10
2018-12-04T09:21:43.716Z,8.20
2018-12-04T09:24:14.703Z,8.20
2018-12-04T09:26:45.623Z,8.10
2018-12-04T09:29:16.569Z,8.10
2018-12-04T09:31:47.487Z,8.10
2018-12-04T09:34:18.412Z,8.20
2018-12-04T09:36:49.262Z,8.20
2018-12-04T09:39:20.047Z,8.20
2018-12-04T09:41:50.769Z,8.20
2018-12-04T09:44:21.477Z,8.20
2018-12-04T09:46:52.183Z,8.20
2018-12-04T09:49:22.870Z,8.20
2018-12-04T09:51:53.574Z,8.30
2018-12-04T09:54:24.298Z,8.40
2018-12-04T09:56:55.019Z,8.40
2018-12-04T09:59:26.238Z,8.40
2018-12-04T10:01:57.174Z,8.50
2018-12-04T10:04:27.895Z,8.50
2018-12-04T10:06:58.586Z,8.50
2018-12-04T10:09:29.405Z,8.50
2018-12-04T10:12:00.394Z,8.50
2018-12-04T10:14:31.065Z,8.50
2018-12-04T10:17:01.810Z,8.50
2018-12-04T10:19:32.496Z,8.50
2018-12-04T10:22:03.258Z,8.60
2018-12-04T10:24:33.959Z,8.60
2018-12-04T10:27:04.666Z,8.60
2018-12-04T10:29:35.349Z,8.60
2018-12-04T10:32:06.078Z,8.60
2018-12-04T10:34:36.779Z,8.60
2018-12-04T10:37:07.723Z,8.50
2018-12-04T10:39:38.420Z,8.60
2018-12-04T10:42:09.123Z,8.50
2018-12-04T10:44:40.033Z,8.50
2018-12-04T10:47:10.733Z,8.50
2018-12-04T10:49:41.432Z,8.50
2018-12-04T10:52:12.377Z,8.60
2018-12-04T10:54:43.073Z,8.60
2018-12-04T10:57:13.801Z,8.60
2018-12-04T10:59:44.494Z,8.70
2018-12-04T11:02:20.807Z,8.70
2018-12-04T11:04:51.611Z,8.80
2018-12-04T11:07:22.306Z,8.80
2018-12-04T11:09:53.123Z,8.90
2018-12-04T11:12:23.813Z,9.10
2018-12-04T11:14:54.533Z,9.20
2018-12-04T11:17:25.230Z,9.30
2018-12-04T11:19:55.987Z,9.40
2018-12-04T11:22:26.703Z,9.50
2018-12-04T11:24:57.421Z,9.60
2018-12-04T11:27:28.147Z,9.60
2018-12-04T11:29:58.826Z,9.60
2018-12-04T11:32:29.650Z,9.70
2018-12-04T11:35:00.333Z,9.70
2018-12-04T11:37:31.054Z,9.70
2018-12-04T11:40:01.768Z,9.70
2018-12-04T11:42:32.460Z,9.80
2018-12-04T11:45:03.188Z,9.70
2018-12-04T11:47:34.096Z,9.70
2018-12-04T11:50:05.742Z,9.70
2018-12-04T11:52:36.470Z,9.60
2018-12-04T11:55:07.443Z,9.50
2018-12-04T11:57:38.269Z,9.40
2018-12-04T12:00:12.479Z,9.40
2018-12-04T12:02:43.208Z,9.30
2018-12-04T12:05:13.974Z,9.30
2018-12-04T12:07:44.670Z,9.30
2018-12-04T12:10:15.378Z,9.30
2018-12-04T12:12:46.053Z,9.30
2018-12-04T12:15:18.042Z,9.30
2018-12-04T12:17:49.390Z,9.20
2018-12-04T12:20:20.086Z,9.20
2018-12-04T12:22:50.758Z,9.10
2018-12-04T12:25:21.702Z,9.10
2018-12-04T12:27:52.677Z,9.10
2018-12-04T12:30:23.386Z,9.10
2018-12-04T12:32:54.085Z,9.20
2018-12-04T12:35:24.760Z,9.20
2018-12-04T12:37:55.460Z,9.30
2018-12-04T12:40:26.172Z,9.30
2018-12-04T12:42:57.050Z,9.30
2018-12-04T12:45:27.811Z,9.30
2018-12-04T12:47:58.714Z,9.20
2018-12-04T12:50:29.405Z,9.20
2018-12-04T12:53:00.317Z,9.20
2018-12-04T12:55:31.030Z,9.20
2018-12-04T12:58:01.718Z,9.20
2018-12-04T13:00:32.441Z,9.20
2018-12-04T13:03:03.309Z,9.20
2018-12-04T13:05:34.075Z,9.30
2018-12-04T13:08:04.994Z,9.30
2018-12-04T13:10:35.704Z,9.30
2018-12-04T13:13:06.392Z,9.30
2018-12-04T13:15:37.353Z,9.30
2018-12-04T13:18:08.106Z,9.30
2018-12-04T13:20:38.845Z,9.30
2018-12-04T13:23:09.525Z,9.20
2018-12-04T13:25:40.861Z,9.10
2018-12-04T13:28:11.850Z,9.10
2018-12-04T13:30:42.573Z,9.00
2018-12-04T13:33:13.493Z,9.00
2018-12-04T13:35:44.434Z,8.90
2018-12-04T13:38:15.200Z,8.80
2018-12-04T13:40:46.144Z,8.70
2018-12-04T13:43:16.829Z,8.70
2018-12-04T13:45:47.526Z,8.60
2018-12-04T13:48:18.212Z,8.60
2018-12-04T13:50:49.154Z,8.50
2018-12-04T13:53:20.073Z,8.40
2018-12-04T13:55:50.785Z,8.40
2018-12-04T13:58:21.485Z,8.30
2018-12-04T14:00:52.451Z,8.30
2018-12-04T14:03:23.386Z,8.20
2018-12-04T14:05:54.195Z,8.20
2018-12-04T14:08:25.154Z,8.20
2018-12-04T14:10:55.867Z,8.10
2018-12-04T14:13:26.814Z,8.10
2018-12-04T14:15:57.758Z,8.10
2018-12-04T14:18:28.684Z,8.10
2018-12-04T14:20:59.618Z,8.10
2018-12-04T14:23:32.788Z,8.10
2018-12-04T14:26:04.124Z,8.10
2018-12-04T14:28:35.052Z,8.10
2018-12-04T14:31:06.039Z,8.10
2018-12-04T14:33:36.970Z,8.10
2018-12-04T14:36:07.906Z,8.10
2018-12-04T14:38:38.722Z,8.10
2018-12-04T14:41:09.630Z,8.10
2018-12-04T14:43:40.356Z,8.00
2018-12-04T14:46:11.262Z,8.00
2018-12-04T14:48:42.221Z,8.00
2018-12-04T14:51:13.142Z,7.90
2018-12-04T14:53:43.856Z,7.90
2018-12-04T14:56:14.807Z,7.90
2018-12-04T14:58:45.758Z,7.80
2018-12-04T15:01:16.796Z,7.80
2018-12-04T15:03:47.734Z,7.80
2018-12-04T15:06:18.720Z,7.80
2018-12-04T15:08:49.652Z,7.80
2018-12-04T15:11:20.625Z,7.70
2018-12-04T15:13:51.337Z,7.70
2018-12-04T15:16:22.312Z,7.60
2018-12-04T15:18:53.245Z,7.60
2018-12-04T15:21:23.997Z,7.50
2018-12-04T15:23:54.899Z,7.50
2018-12-04T15:26:25.841Z,7.40
2018-12-04T15:28:56.549Z,7.40
2018-12-04T15:31:27.480Z,7.30
2018-12-04T15:33:58.477Z,7.30
2018-12-04T15:36:29.473Z,7.20
2018-12-04T15:39:00.201Z,7.20
2018-12-04T15:41:31.125Z,7.10
2018-12-04T15:44:01.801Z,7.10
2018-12-04T15:46:32.638Z,7.00
2018-12-04T15:49:03.557Z,6.90
2018-12-04T15:51:34.540Z,6.90
2018-12-04T15:54:05.408Z,6.80
2018-12-04T15:56:36.161Z,6.80
2018-12-04T15:59:06.866Z,6.70
2018-12-04T16:01:37.593Z,6.70
2018-12-04T16:04:08.381Z,6.60
2018-12-04T16:06:39.315Z,6.60
2018-12-04T16:09:10.184Z,6.50
2018-12-04T16:11:41.093Z,6.50
2018-12-04T16:14:11.817Z,6.40
2018-12-04T16:16:42.541Z,6.40
2018-12-04T16:19:13.542Z,6.40
2018-12-04T16:21:44.221Z,6.40
2018-12-04T16:24:14.977Z,6.40
2018-12-04T16:26:45.722Z,6.40
2018-12-04T16:29:16.408Z,6.40
2018-12-04T16:31:47.130Z,6.30
2018-12-04T16:34:18.004Z,6.30
2018-12-04T16:36:48.710Z,6.30
2018-12-04T16:39:19.393Z,6.30
2018-12-04T16:41:50.310Z,6.30
2018-12-04T16:44:21.046Z,6.20
2018-12-04T16:46:51.867Z,6.20
2018-12-04T16:49:22.598Z,6.20
2018-12-04T16:51:53.390Z,6.20
2018-12-04T16:54:24.077Z,6.20
2018-12-04T16:56:54.786Z,6.10
2018-12-04T16:59:25.498Z,6.10
2018-12-04T17:01:56.217Z,6.10
2018-12-04T17:04:26.928Z,6.10
2018-12-04T17:06:57.706Z,6.00
2018-12-04T17:09:28.418Z,6.00
2018-12-04T17:11:59.173Z,6.00
2018-12-04T17:14:30.227Z,6.00
2018-12-04T17:17:01.004Z,5.90
2018-12-04T17:19:31.689Z,5.90
2018-12-04T17:22:02.630Z,5.90
2018-12-04T17:24:33.765Z,5.90
2018-12-04T17:27:04.509Z,5.90
2018-12-04T17:29:35.214Z,5.80
2018-12-04T17:32:05.895Z,5.80
2018-12-04T17:34:36.610Z,5.80
2018-12-04T17:37:07.298Z,5.70
2018-12-04T17:39:38.031Z,5.70
2018-12-04T17:42:08.769Z,5.70
2018-12-04T17:44:40.317Z,5.60
2018-12-04T17:47:10.961Z,5.60
2018-12-04T17:49:41.712Z,5.60
2018-12-04T17:52:12.024Z,5.50
2018-12-04T17:54:42.181Z,5.50
2018-12-04T17:57:12.301Z,5.50
2018-12-04T17:59:42.454Z,5.40
2018-12-04T18:02:12.586Z,5.50
2018-12-04T18:04:42.814Z,5.40
2018-12-04T18:07:12.949Z,5.40
2018-12-04T18:09:43.070Z,5.40
2018-12-04T18:12:13.220Z,5.40
2018-12-04T18:14:43.410Z,5.30
2018-12-04T18:17:13.641Z,5.30
2018-12-04T18:19:44.238Z,5.30
2018-12-04T18:22:14.605Z,5.30
2018-12-04T18:24:44.713Z,5.30
2018-12-04T18:27:14.943Z,5.30
2018-12-04T18:29:45.047Z,5.20
2018-12-04T18:32:15.424Z,5.20
2018-12-04T18:34:45.558Z,5.20
2018-12-04T18:37:15.688Z,5.10
2018-12-04T18:39:45.830Z,5.20
2018-12-04T18:42:15.991Z,5.10
2018-12-04T18:44:46.414Z,5.10
2018-12-04T18:47:16.528Z,5.10
2018-12-04T18:49:46.971Z,5.10
2018-12-04T18:52:17.077Z,5.10
2018-12-04T18:54:47.218Z,5.00
2018-12-04T18:57:17.436Z,5.00
2018-12-04T18:59:47.577Z,5.00
2018-12-04T19:02:17.739Z,5.00
2018-12-04T19:04:47.877Z,5.00
2018-12-04T19:07:17.994Z,5.00
2018-12-04T19:09:48.184Z,5.00
2018-12-04T19:12:18.299Z,4.90
2018-12-04T19:14:48.438Z,4.90
2018-12-04T19:17:18.594Z,4.90
2018-12-04T19:19:48.794Z,4.90
2018-12-04T19:22:18.918Z,4.80
2018-12-04T19:24:49.057Z,4.80
2018-12-04T19:27:19.394Z,4.80
2018-12-04T19:29:49.537Z,4.80
2018-12-04T19:32:19.775Z,4.70
2018-12-04T19:34:50.097Z,4.70
2018-12-04T19:37:20.313Z,4.70
2018-12-04T19:39:50.470Z,4.70
2018-12-04T19:42:21.198Z,4.70
2018-12-04T19:44:51.330Z,4.70
2018-12-04T19:47:21.466Z,4.70
2018-12-04T19:49:51.654Z,4.60
2018-12-04T19:52:21.795Z,4.60
2018-12-04T19:54:51.905Z,4.60
2018-12-04T19:57:22.051Z,4.50
2018-12-04T19:59:52.166Z,4.50
2018-12-04T20:02:22.351Z,4.50
2018-12-04T20:04:52.600Z,4.40
2018-12-04T20:07:22.891Z,4.40
2018-12-04T20:09:53.047Z,4.40
2018-12-04T20:12:23.162Z,4.40
2018-12-04T20:14:53.321Z,4.30
2018-12-04T20:17:23.434Z,4.30
2018-12-04T20:19:55.619Z,4.30
2018-12-04T20:22:25.803Z,4.30
2018-12-04T20:24:56.170Z,4.30
2018-12-04T20:27:26.301Z,4.20
2018-12-04T20:29:56.445Z,4.20
2018-12-04T20:32:26.583Z,4.20
2018-12-04T20:34:57.027Z,4.10
2018-12-04T20:37:28.425Z,4.10
2018-12-04T20:39:59.253Z,4.10
2018-12-04T20:42:29.410Z,4.10
2018-12-04T20:44:59.581Z,4.00
2018-12-04T20:47:29.962Z,4.00
2018-12-04T20:50:00.131Z,4.00
2018-12-04T20:52:30.276Z,4.00
2018-12-04T20:55:00.437Z,4.00
2018-12-04T20:57:30.550Z,4.00
2018-12-04T21:00:00.688Z,3.90
2018-12-04T21:02:31.178Z,3.90
2018-12-04T21:05:01.589Z,3.90
2018-12-04T21:07:31.936Z,3.90
2018-12-04T21:10:02.073Z,3.90
2018-12-04T21:12:32.235Z,3.80
2018-12-04T21:15:02.374Z,3.80
2018-12-04T21:17:32.530Z,3.80
2018-12-04T21:20:02.938Z,3.70
2018-12-04T21:22:33.056Z,3.70
2018-12-04T21:25:03.265Z,3.70
2018-12-04T21:27:38.965Z,3.70
2018-12-04T21:33:20.831Z,3.60
2018-12-04T21:35:56.582Z,3.70
2018-12-04T21:38:32.232Z,3.60
2018-12-04T21:41:05.145Z,3.60
2018-12-04T21:43:40.831Z,3.60
2018-12-04T21:46:16.468Z,3.60
2018-12-04T21:48:46.906Z,3.50
2018-12-04T21:51:17.037Z,3.50
2018-12-04T21:53:47.178Z,3.50
2018-12-04T21:56:17.309Z,3.50
2018-12-04T21:58:47.422Z,3.50
2018-12-04T22:01:17.561Z,3.40
2018-12-04T22:03:47.730Z,3.40
2018-12-04T22:06:17.884Z,3.40
2018-12-04T22:08:47.996Z,3.40
2018-12-04T22:11:18.145Z,3.40
2018-12-04T22:13:48.262Z,3.40
2018-12-04T22:16:18.413Z,3.40
2018-12-04T22:18:48.570Z,3.30
2018-12-04T22:21:18.722Z,3.30
2018-12-04T22:23:48.835Z,3.30
2018-12-04T22:26:18.974Z,3.30
2018-12-04T22:28:49.320Z,3.30
2018-12-04T22:31:19.449Z,3.20
2018-12-04T22:33:49.924Z,3.20
2018-12-04T22:36:20.073Z,3.20
2018-12-04T22:38:50.191Z,3.10
2018-12-04T22:41:20.350Z,3.10
2018-12-04T22:43:50.491Z,3.10
2018-12-04T22:46:20.598Z,3.10
2018-12-04T22:48:50.729Z,3.00
2018-12-04T22:51:21.685Z,3.00
2018-12-04T22:53:51.813Z,3.00
2018-12-04T22:56:22.157Z,3.00
2018-12-04T22:58:52.309Z,3.00
2018-12-04T23:01:37.198Z,3.00
2018-12-04T23:04:07.873Z,3.00
2018-12-04T23:06:38.070Z,2.90
2018-12-04T23:09:09.400Z,2.90
2018-12-04T23:11:39.948Z,2.90
2018-12-04T23:14:10.173Z,2.80
2018-12-04T23:16:40.284Z,2.80
2018-12-04T23:19:10.430Z,2.80
2018-12-04T23:21:40.552Z,2.80
2018-12-04T23:24:10.738Z,2.80
2018-12-04T23:26:40.848Z,2.80
2018-12-04T23:29:10.990Z,2.70
2018-12-04T23:31:41.097Z,2.70
2018-12-04T23:34:11.233Z,2.70
2018-12-04T23:36:41.346Z,2.70
2018-12-04T23:39:11.489Z,2.70
2018-12-04T23:41:41.606Z,2.70
2018-12-04T23:44:11.824Z,2.60
2018-12-04T23:46:41.970Z,2.60
2018-12-04T23:49:12.317Z,2.60
2018-12-04T23:51:42.453Z,2.60
2018-12-04T23:54:12.560Z,2.60
2018-12-04T23:56:42.696Z,2.50
2018-12-04T23:59:12.809Z,2.50
